createdAt,value
2022-11-21T00:01:17.057Z,17.27
2022-11-21T00:03:45.535Z,16.73
2022-11-21T00:06:13.978Z,17.10
2022-11-21T00:08:43.628Z,17.30
2022-11-21T00:11:11.938Z,17.27
2022-11-21T00:13:40.155Z,17.17
2022-11-21T00:16:09.303Z,17.47
2022-11-21T00:18:37.806Z,18.93
2022-11-21T00:21:06.863Z,18.37
2022-11-21T00:23:35.257Z,17.97
2022-11-21T00:26:07.264Z,17.33
2022-11-21T00:28:35.853Z,17.80
2022-11-21T00:31:04.255Z,17.03
2022-11-21T00:33:32.766Z,17.97
2022-11-21T00:36:01.186Z,19.07
2022-11-21T00:38:29.695Z,18.63
2022-11-21T00:40:58.015Z,19.20
2022-11-21T00:43:27.694Z,20.13
2022-11-21T00:45:56.107Z,20.23
2022-11-21T00:48:24.308Z,20.00
2022-11-21T00:50:52.668Z,19.50
2022-11-21T00:53:20.966Z,19.53
2022-11-21T00:55:49.264Z,19.73
2022-11-21T00:58:17.555Z,19.40
2022-11-21T01:00:47.229Z,19.80
2022-11-21T01:03:15.504Z,19.53
2022-11-21T01:05:43.802Z,18.57
2022-11-21T01:08:12.080Z,20.37
2022-11-21T01:10:40.315Z,20.60
2022-11-21T01:13:08.532Z,20.00
2022-11-21T01:15:36.727Z,20.00
2022-11-21T01:18:06.444Z,20.53
2022-11-21T01:20:34.756Z,19.20
2022-11-21T01:23:03.107Z,19.37
2022-11-21T01:25:31.515Z,18.43
2022-11-21T01:27:59.842Z,18.80
2022-11-21T01:30:28.333Z,19.83
2022-11-21T01:32:56.591Z,19.07
2022-11-21T01:35:26.874Z,18.43
2022-11-21T01:37:55.175Z,18.20
2022-11-21T01:40:23.596Z,18.70
2022-11-21T01:42:55.212Z,18.90
2022-11-21T01:45:41.851Z,18.47
2022-11-21T01:48:10.173Z,18.57
2022-11-21T01:50:39.784Z,18.50
2022-11-21T01:53:08.145Z,18.00
2022-11-21T01:55:36.608Z,17.80
2022-11-21T01:58:05.965Z,18.50
2022-11-21T02:00:36.006Z,19.13
2022-11-21T02:03:08.900Z,19.37
2022-11-21T02:05:37.559Z,20.10
2022-11-21T02:08:09.748Z,19.80
2022-11-21T02:10:39.300Z,19.70
2022-11-21T02:13:07.509Z,18.67
2022-11-21T02:15:35.769Z,17.97
2022-11-21T02:18:04.278Z,18.63
2022-11-21T02:20:32.625Z,18.93
2022-11-21T02:23:05.558Z,18.10
2022-11-21T02:25:35.956Z,17.67
2022-11-21T02:28:05.464Z,17.67
2022-11-21T02:30:34.747Z,17.60
2022-11-21T02:33:03.001Z,17.03
2022-11-21T02:35:34.344Z,17.30
2022-11-21T02:38:03.975Z,18.40
2022-11-21T02:40:34.372Z,16.87
2022-11-21T02:43:05.379Z,18.00
2022-11-21T02:45:35.316Z,17.63
2022-11-21T02:48:04.405Z,19.20
2022-11-21T02:50:34.384Z,18.07
2022-11-21T02:53:02.710Z,18.20
2022-11-21T02:55:31.094Z,17.27
2022-11-21T02:58:04.620Z,18.43
2022-11-21T03:00:35.952Z,17.80
2022-11-21T03:03:04.450Z,18.03
2022-11-21T03:05:33.069Z,18.17
2022-11-21T03:08:01.487Z,18.40
2022-11-21T03:10:29.776Z,18.73
2022-11-21T03:13:01.810Z,17.47
2022-11-21T03:15:30.703Z,17.50
2022-11-21T03:18:01.253Z,17.10
2022-11-21T03:20:29.566Z,18.00
2022-11-21T03:22:57.798Z,17.63
2022-11-21T03:25:26.101Z,17.43
2022-11-21T03:27:54.688Z,18.03
2022-11-21T03:30:22.994Z,17.43
2022-11-21T03:32:51.310Z,18.80
2022-11-21T03:35:20.940Z,17.13
2022-11-21T03:37:49.837Z,18.90
2022-11-21T03:40:18.179Z,18.27
2022-11-21T03:42:46.511Z,18.70
2022-11-21T03:45:14.931Z,19.03
2022-11-21T03:47:43.372Z,18.30
2022-11-21T03:50:15.045Z,18.10
2022-11-21T03:52:44.672Z,18.50
2022-11-21T03:55:12.952Z,19.17
2022-11-21T03:57:41.239Z,18.20
2022-11-21T04:00:10.205Z,18.97
2022-11-21T04:02:38.565Z,17.83
2022-11-21T04:05:07.183Z,18.47
2022-11-21T04:07:35.425Z,18.60
2022-11-21T04:10:05.267Z,18.77
2022-11-21T04:12:33.591Z,18.57
2022-11-21T04:15:01.930Z,18.17
2022-11-21T04:17:31.939Z,18.43
2022-11-21T04:20:00.250Z,18.27
2022-11-21T04:22:28.511Z,19.27
2022-11-21T04:24:56.802Z,18.93
2022-11-21T04:27:26.385Z,19.50
2022-11-21T04:29:54.619Z,19.07
2022-11-21T04:32:22.971Z,18.93
2022-11-21T04:34:51.197Z,18.43
2022-11-21T04:37:19.463Z,19.07
2022-11-21T04:39:47.770Z,19.60
2022-11-21T04:42:16.175Z,18.37
2022-11-21T04:44:45.855Z,19.17
2022-11-21T04:47:14.180Z,19.23
2022-11-21T04:49:42.540Z,20.83
2022-11-21T04:52:12.034Z,19.23
2022-11-21T04:54:40.317Z,19.87
2022-11-21T04:57:08.582Z,19.83
2022-11-21T04:59:36.858Z,19.77
2022-11-21T05:02:06.470Z,19.57
2022-11-21T05:04:34.701Z,18.90
2022-11-21T05:07:03.094Z,18.87
2022-11-21T05:09:31.548Z,18.63
2022-11-21T05:12:17.667Z,18.97
2022-11-21T05:14:45.897Z,19.17
2022-11-21T05:17:15.520Z,19.40
2022-11-21T05:19:43.799Z,20.13
2022-11-21T05:22:12.320Z,19.37
2022-11-21T05:24:40.829Z,18.97
2022-11-21T05:27:09.085Z,20.20
2022-11-21T05:29:37.363Z,22.13
2022-11-21T05:32:05.684Z,20.70
2022-11-21T05:34:35.346Z,20.97
2022-11-21T05:37:03.636Z,20.57
2022-11-21T05:39:32.123Z,21.20
2022-11-21T05:42:03.165Z,19.77
2022-11-21T05:44:31.031Z,20.93
2022-11-21T05:46:59.411Z,23.53
2022-11-21T05:49:27.787Z,21.57
2022-11-21T05:51:57.549Z,22.93
2022-11-21T05:54:25.901Z,24.27
2022-11-21T05:56:54.393Z,26.07
2022-11-21T05:59:22.819Z,24.87
2022-11-21T06:02:08.550Z,25.07
2022-11-21T06:04:36.926Z,22.20
2022-11-21T06:07:09.450Z,21.23
2022-11-21T06:09:37.867Z,20.80
2022-11-21T06:12:06.285Z,20.30
2022-11-21T06:14:34.610Z,20.13
2022-11-21T06:17:02.876Z,22.53
2022-11-21T06:19:31.437Z,22.33
2022-11-21T06:21:59.637Z,21.90
2022-11-21T06:24:29.504Z,22.67
2022-11-21T06:26:57.897Z,21.93
2022-11-21T06:29:26.315Z,22.17
2022-11-21T06:31:55.968Z,21.30
2022-11-21T06:34:24.215Z,22.47
2022-11-21T06:36:52.527Z,22.17
2022-11-21T06:39:20.822Z,23.97
2022-11-21T06:41:51.270Z,20.67
2022-11-21T06:44:20.014Z,20.70
2022-11-21T06:46:51.528Z,21.50
2022-11-21T06:49:22.091Z,19.40
2022-11-21T06:51:50.411Z,19.70
2022-11-21T06:54:18.758Z,21.00
2022-11-21T06:56:47.062Z,19.27
2022-11-21T06:59:16.746Z,20.23
2022-11-21T07:01:44.975Z,20.63
2022-11-21T07:04:13.301Z,23.37
2022-11-21T07:06:41.583Z,22.47
2022-11-21T07:12:18.564Z,22.10
2022-11-21T07:14:47.298Z,22.87
2022-11-21T07:17:15.792Z,22.10
2022-11-21T07:19:44.114Z,22.63
2022-11-21T07:22:12.334Z,22.27
2022-11-21T07:24:40.702Z,21.20
2022-11-21T07:27:09.047Z,22.87
2022-11-21T07:29:37.382Z,22.47
2022-11-21T07:32:07.167Z,21.47
2022-11-21T07:34:35.471Z,22.87
2022-11-21T07:37:05.343Z,22.80
2022-11-21T07:39:33.808Z,22.90
2022-11-21T07:42:02.099Z,21.93
2022-11-21T07:44:30.644Z,21.00
2022-11-21T07:46:58.953Z,22.37
2022-11-21T07:49:28.800Z,21.80
2022-11-21T07:51:57.150Z,21.50
2022-11-21T07:54:25.430Z,21.57
2022-11-21T07:56:53.708Z,20.73
2022-11-21T07:59:21.947Z,21.77
2022-11-21T08:01:50.451Z,21.00
2022-11-21T08:04:18.897Z,21.17
2022-11-21T08:06:48.620Z,20.67
2022-11-21T08:09:16.940Z,20.23
2022-11-21T08:11:45.331Z,22.03
2022-11-21T08:14:13.752Z,22.23
2022-11-21T08:16:42.013Z,20.97
2022-11-21T08:19:10.534Z,20.57
2022-11-21T08:21:38.844Z,21.90
2022-11-21T08:24:13.488Z,21.43
2022-11-21T08:26:41.837Z,20.10
2022-11-21T08:29:11.360Z,21.53
2022-11-21T08:31:40.518Z,20.80
2022-11-21T08:34:15.759Z,21.33
2022-11-21T08:36:44.080Z,22.57
2022-11-21T08:39:13.808Z,22.33
2022-11-21T08:41:59.642Z,25.00
2022-11-21T08:44:29.056Z,25.97
2022-11-21T08:46:57.524Z,25.20
2022-11-21T08:49:25.825Z,23.43
2022-11-21T08:51:54.466Z,23.23
2022-11-21T08:54:25.200Z,23.57
2022-11-21T08:56:53.812Z,22.93
2022-11-21T08:59:22.248Z,23.20
2022-11-21T09:01:50.669Z,23.70
2022-11-21T09:04:19.008Z,23.73
2022-11-21T09:06:48.073Z,22.53
2022-11-21T09:09:19.409Z,24.37
2022-11-21T09:11:53.570Z,22.63
2022-11-21T09:14:39.735Z,22.67
2022-11-21T09:17:37.283Z,23.23
2022-11-21T09:20:05.929Z,23.27
2022-11-21T09:22:34.344Z,23.07
2022-11-21T09:25:02.813Z,24.00
2022-11-21T09:27:33.428Z,23.87
2022-11-21T09:30:01.784Z,25.30
2022-11-21T09:32:30.073Z,24.73
2022-11-21T09:34:58.443Z,24.60
2022-11-21T09:37:26.739Z,23.63
2022-11-21T09:39:55.006Z,24.17
2022-11-21T09:42:41.948Z,22.77
2022-11-21T09:45:13.286Z,23.87
2022-11-21T09:47:44.460Z,24.63
2022-11-21T09:50:38.669Z,24.83
2022-11-21T09:53:08.403Z,26.47
2022-11-21T09:55:44.195Z,25.97
2022-11-21T09:58:18.291Z,26.53
2022-11-21T10:00:48.092Z,28.80
2022-11-21T10:03:22.036Z,27.93
2022-11-21T10:05:53.390Z,28.37
2022-11-21T10:08:30.091Z,27.90
2022-11-21T10:11:07.300Z,27.80
2022-11-21T10:13:46.406Z,29.27
2022-11-21T10:16:21.275Z,30.70
2022-11-21T10:19:05.409Z,32.23
2022-11-21T10:21:42.291Z,34.50
2022-11-21T10:24:18.030Z,32.83
2022-11-21T10:26:52.079Z,30.47
2022-11-21T10:29:22.886Z,31.40
2022-11-21T10:31:52.839Z,32.77
2022-11-21T10:34:22.595Z,33.77
2022-11-21T10:36:52.637Z,32.43
2022-11-21T10:39:22.826Z,34.40
2022-11-21T10:41:53.637Z,32.27
2022-11-21T10:44:44.268Z,31.87
2022-11-21T10:47:27.310Z,36.20
2022-11-21T10:49:59.241Z,38.07
2022-11-21T10:52:28.660Z,35.77
2022-11-21T10:55:07.685Z,39.50
2022-11-21T10:57:40.467Z,33.47
2022-11-21T11:00:16.418Z,34.53
2022-11-21T11:03:02.048Z,34.30
2022-11-21T11:05:31.137Z,34.27
2022-11-21T11:08:03.449Z,36.27
2022-11-21T11:10:32.375Z,35.60
2022-11-21T11:13:44.736Z,35.30
2022-11-21T11:16:07.934Z,33.83
2022-11-21T11:18:40.904Z,35.50
2022-11-21T11:21:20.462Z,33.93
2022-11-21T11:23:49.493Z,34.00
2022-11-21T11:26:29.583Z,33.70
2022-11-21T11:29:08.952Z,30.87
2022-11-21T11:31:43.831Z,32.13
2022-11-21T11:34:15.988Z,33.30
2022-11-21T11:36:55.701Z,33.53
2022-11-21T11:39:30.266Z,33.93
2022-11-21T11:42:27.431Z,33.07
2022-11-21T11:45:20.942Z,32.70
2022-11-21T11:47:54.689Z,33.00
2022-11-21T11:50:26.651Z,33.70
2022-11-21T11:52:59.027Z,33.47
2022-11-21T11:55:31.936Z,33.23
2022-11-21T11:58:02.491Z,32.40
2022-11-21T12:00:33.819Z,34.47
2022-11-21T12:03:04.884Z,35.37
2022-11-21T12:05:34.960Z,32.63
2022-11-21T12:11:16.963Z,36.20
2022-11-21T12:13:49.440Z,35.83
2022-11-21T12:16:19.123Z,35.73
2022-11-21T12:18:50.970Z,35.87
2022-11-21T12:21:20.963Z,35.27
2022-11-21T12:23:50.465Z,37.23
2022-11-21T12:26:27.927Z,36.30
2022-11-21T12:29:02.218Z,34.70
2022-11-21T12:31:35.635Z,36.63
2022-11-21T12:34:06.992Z,34.73
2022-11-21T12:36:40.659Z,40.27
2022-11-21T12:39:18.180Z,37.20
2022-11-21T12:42:08.233Z,39.70
2022-11-21T12:44:43.910Z,39.37
2022-11-21T12:47:20.932Z,38.30
2022-11-21T12:50:09.887Z,38.57
2022-11-21T12:52:59.773Z,37.00
2022-11-21T12:55:35.661Z,37.33
2022-11-21T12:58:24.870Z,38.17
2022-11-21T13:01:15.502Z,39.63
2022-11-21T13:03:49.541Z,36.60
2022-11-21T13:06:19.742Z,39.53
2022-11-21T13:08:51.525Z,39.03
2022-11-21T13:11:43.700Z,41.07
2022-11-21T13:14:15.463Z,39.53
2022-11-21T13:16:48.480Z,41.67
2022-11-21T13:19:20.753Z,41.23
2022-11-21T13:21:49.569Z,42.40
2022-11-21T13:24:36.597Z,40.17
2022-11-21T13:27:06.285Z,39.70
2022-11-21T13:29:34.667Z,41.00
2022-11-21T13:32:27.064Z,39.97
2022-11-21T13:34:55.356Z,38.07
2022-11-21T13:37:38.554Z,41.70
2022-11-21T13:40:21.724Z,39.17
2022-11-21T13:43:31.277Z,39.60
2022-11-21T13:45:56.620Z,38.60
2022-11-21T13:48:47.219Z,37.37
2022-11-21T13:51:24.739Z,38.80
2022-11-21T13:54:08.287Z,40.90
2022-11-21T13:56:38.376Z,39.00
2022-11-21T13:59:14.871Z,38.97
2022-11-21T14:01:54.457Z,38.27
2022-11-21T14:04:47.221Z,39.93
2022-11-21T14:07:33.527Z,41.33
2022-11-21T14:10:03.284Z,39.93
2022-11-21T14:12:36.118Z,38.77
2022-11-21T14:15:14.766Z,39.73
2022-11-21T14:17:47.288Z,41.17
2022-11-21T14:20:18.652Z,43.10
2022-11-21T14:22:49.566Z,44.60
2022-11-21T14:25:19.629Z,45.93
2022-11-21T14:27:49.451Z,41.40
2022-11-21T14:30:31.072Z,42.03
2022-11-21T14:33:16.270Z,39.50
2022-11-21T14:35:49.412Z,40.67
2022-11-21T14:38:17.729Z,41.40
2022-11-21T14:40:46.027Z,39.17
2022-11-21T14:43:28.296Z,39.93
2022-11-21T14:45:56.656Z,38.83
2022-11-21T14:48:28.757Z,38.90
2022-11-21T14:50:58.724Z,40.97
2022-11-21T14:53:27.370Z,39.87
2022-11-21T14:56:01.244Z,39.40
2022-11-21T14:58:30.023Z,39.33
2022-11-21T15:01:05.023Z,39.47
2022-11-21T15:03:35.310Z,39.17
2022-11-21T15:06:06.866Z,36.40
2022-11-21T15:11:25.893Z,37.90
2022-11-21T15:14:14.987Z,35.80
2022-11-21T15:16:43.756Z,37.13
2022-11-21T15:19:13.423Z,36.87
2022-11-21T15:21:46.472Z,37.57
2022-11-21T15:24:18.705Z,36.50
2022-11-21T15:26:47.333Z,37.63
2022-11-21T15:29:21.004Z,37.40
2022-11-21T15:32:07.149Z,34.73
2022-11-21T15:34:37.153Z,35.37
2022-11-21T15:37:08.508Z,33.90
2022-11-21T15:39:37.910Z,35.10
2022-11-21T15:42:24.700Z,34.83
2022-11-21T15:44:59.553Z,33.93
2022-11-21T15:47:28.567Z,35.00
2022-11-21T15:49:58.268Z,34.37
2022-11-21T15:52:26.659Z,37.10
2022-11-21T15:54:55.030Z,36.10
2022-11-21T15:57:25.740Z,34.60
2022-11-21T15:59:54.154Z,37.27
2022-11-21T16:02:22.573Z,34.47
2022-11-21T16:04:51.144Z,36.03
2022-11-21T16:07:20.777Z,35.03
2022-11-21T16:09:49.737Z,33.73
2022-11-21T16:12:18.146Z,32.57
2022-11-21T16:14:46.961Z,34.73
2022-11-21T16:17:15.596Z,34.23
2022-11-21T16:19:43.895Z,34.07
2022-11-21T16:22:12.220Z,33.90
2022-11-21T16:24:41.889Z,31.60
2022-11-21T16:27:10.216Z,33.43
2022-11-21T16:29:38.512Z,34.60
2022-11-21T16:32:07.013Z,35.07
2022-11-21T16:34:35.349Z,32.97
2022-11-21T16:37:07.278Z,34.67
2022-11-21T16:39:36.230Z,33.47
2022-11-21T16:42:05.978Z,32.30
2022-11-21T16:44:34.332Z,31.87
2022-11-21T16:47:08.125Z,33.70
2022-11-21T16:49:42.804Z,31.10
2022-11-21T16:52:11.120Z,30.03
2022-11-21T16:54:39.426Z,30.13
2022-11-21T16:57:09.135Z,30.20
2022-11-21T16:59:37.404Z,30.17
2022-11-21T17:02:05.989Z,29.47
2022-11-21T17:04:34.870Z,29.73
2022-11-21T17:07:03.808Z,27.83
2022-11-21T17:09:32.263Z,28.27
2022-11-21T17:12:00.705Z,29.93
2022-11-21T17:14:30.864Z,30.77
2022-11-21T17:17:02.314Z,28.10
2022-11-21T17:19:30.712Z,32.23
2022-11-21T17:22:00.166Z,28.80
2022-11-21T17:24:28.823Z,29.33
2022-11-21T17:27:00.482Z,30.03
2022-11-21T17:29:30.385Z,29.03
2022-11-21T17:31:58.978Z,30.20
2022-11-21T17:34:32.779Z,29.17
2022-11-21T17:37:01.744Z,31.63
2022-11-21T17:39:30.567Z,32.87
2022-11-21T17:42:00.343Z,31.20
2022-11-21T17:44:31.645Z,31.07
2022-11-21T17:47:02.002Z,29.07
2022-11-21T17:49:36.896Z,31.20
2022-11-21T17:52:06.535Z,32.17
2022-11-21T17:54:34.872Z,33.00
2022-11-21T17:57:03.263Z,30.67
2022-11-21T17:59:34.704Z,28.07
2022-11-21T18:02:03.326Z,27.27
2022-11-21T18:04:32.185Z,28.73
2022-11-21T18:07:00.814Z,28.43
2022-11-21T18:09:29.812Z,27.87
2022-11-21T18:11:58.510Z,27.30
2022-11-21T18:14:27.369Z,26.50
2022-11-21T18:16:57.446Z,27.17
2022-11-21T18:19:25.730Z,28.33
2022-11-21T18:21:54.065Z,24.13
2022-11-21T18:24:22.452Z,24.33
2022-11-21T18:26:50.805Z,25.60
2022-11-21T18:29:36.503Z,24.53
2022-11-21T18:32:07.320Z,24.83
2022-11-21T18:34:35.608Z,26.13
2022-11-21T18:37:03.934Z,26.60
2022-11-21T18:39:32.594Z,26.57
2022-11-21T18:42:01.099Z,23.00
2022-11-21T18:44:29.619Z,22.23
2022-11-21T18:46:57.982Z,20.83
2022-11-21T18:49:28.074Z,20.17
2022-11-21T18:51:56.667Z,20.03
2022-11-21T18:54:24.995Z,20.43
2022-11-21T18:56:53.487Z,19.37
2022-11-21T18:59:21.771Z,20.70
2022-11-21T19:01:51.271Z,20.87
2022-11-21T19:04:19.628Z,17.83
2022-11-21T19:06:49.249Z,18.53
2022-11-21T19:09:17.488Z,18.30
2022-11-21T19:11:45.734Z,19.73
2022-11-21T19:14:14.116Z,18.47
2022-11-21T19:16:42.620Z,18.30
2022-11-21T19:19:33.608Z,18.47
2022-11-21T19:22:01.786Z,17.33
2022-11-21T19:24:30.116Z,18.90
2022-11-21T19:26:58.504Z,18.10
2022-11-21T19:29:27.087Z,18.83
2022-11-21T19:31:55.923Z,18.30
2022-11-21T19:34:24.281Z,18.37
2022-11-21T19:36:53.023Z,18.03
2022-11-21T19:39:23.443Z,17.27
2022-11-21T19:41:51.747Z,17.10
2022-11-21T19:44:20.078Z,17.80
2022-11-21T19:46:49.512Z,18.00
2022-11-21T19:49:19.405Z,16.47
2022-11-21T19:51:47.791Z,16.60
2022-11-21T19:54:16.964Z,15.47
2022-11-21T19:56:46.619Z,15.10
2022-11-21T19:59:15.417Z,16.17
2022-11-21T20:01:48.120Z,16.33
2022-11-21T20:04:19.543Z,16.07
2022-11-21T20:06:47.907Z,14.93
2022-11-21T20:09:17.677Z,14.80
2022-11-21T20:11:48.357Z,15.67
2022-11-21T20:14:21.826Z,14.77
2022-11-21T20:16:51.268Z,14.13
2022-11-21T20:19:20.843Z,15.10
2022-11-21T20:21:49.135Z,15.47
2022-11-21T20:24:17.873Z,15.47
2022-11-21T20:26:47.648Z,15.53
2022-11-21T20:29:16.080Z,15.27
2022-11-21T20:31:44.417Z,15.63
2022-11-21T20:34:13.654Z,14.73
2022-11-21T20:36:42.434Z,15.13
2022-11-21T20:39:14.554Z,13.60
2022-11-21T20:41:42.818Z,13.97
2022-11-21T20:47:04.162Z,13.87
2022-11-21T20:49:32.882Z,13.37
2022-11-21T20:54:49.653Z,13.47
2022-11-21T20:57:17.972Z,12.90
2022-11-21T20:59:47.697Z,11.93
2022-11-21T21:02:16.088Z,13.17
2022-11-21T21:04:44.462Z,12.17
2022-11-21T21:07:12.869Z,13.40
2022-11-21T21:09:41.184Z,12.97
2022-11-21T21:12:10.227Z,13.47
2022-11-21T21:14:38.500Z,12.23
2022-11-21T21:17:08.587Z,12.80
2022-11-21T21:19:37.271Z,12.97
2022-11-21T21:22:05.994Z,16.23
2022-11-21T21:24:34.301Z,14.87
2022-11-21T21:27:02.602Z,13.00
2022-11-21T21:29:31.180Z,12.40
2022-11-21T21:31:59.762Z,12.47
2022-11-21T21:34:30.024Z,12.37
2022-11-21T21:36:58.679Z,12.93
2022-11-21T21:39:27.419Z,12.40
2022-11-21T21:41:55.793Z,12.43
2022-11-21T21:44:28.315Z,12.43
2022-11-21T21:46:59.876Z,12.07
2022-11-21T21:49:29.748Z,11.93
2022-11-21T21:51:58.007Z,11.60
2022-11-21T21:54:26.367Z,12.60
2022-11-21T21:56:54.717Z,12.77
2022-11-21T21:59:22.962Z,12.37
2022-11-21T22:01:51.279Z,11.63
2022-11-21T22:04:19.558Z,12.33
2022-11-21T22:06:49.182Z,12.67
2022-11-21T22:09:17.480Z,12.40
2022-11-21T22:11:45.829Z,13.07
2022-11-21T22:14:15.171Z,12.07
2022-11-21T22:16:44.029Z,11.53
2022-11-21T22:19:12.322Z,12.30
2022-11-21T22:21:40.808Z,12.57
2022-11-21T22:24:29.756Z,11.40
2022-11-21T22:26:58.118Z,12.70
2022-11-21T22:29:26.710Z,12.27
2022-11-21T22:31:54.906Z,12.27
2022-11-21T22:34:23.467Z,12.90
2022-11-21T22:36:51.854Z,12.70
2022-11-21T22:39:21.517Z,12.40
2022-11-21T22:41:49.715Z,13.10
2022-11-21T22:44:19.010Z,12.87
2022-11-21T22:46:47.240Z,13.00
2022-11-21T22:49:15.502Z,12.97
2022-11-21T22:51:43.743Z,12.80
2022-11-21T22:54:12.911Z,12.90
2022-11-21T22:56:42.638Z,12.80
2022-11-21T22:59:13.716Z,12.13
2022-11-21T23:01:42.017Z,13.00
2022-11-21T23:04:14.539Z,13.23
2022-11-21T23:06:45.622Z,12.23
2022-11-21T23:09:13.919Z,13.53
2022-11-21T23:11:43.604Z,12.57
2022-11-21T23:14:11.825Z,12.90
2022-11-21T23:16:40.091Z,12.53
2022-11-21T23:19:08.745Z,13.20
2022-11-21T23:21:37.013Z,12.73
2022-11-21T23:24:05.470Z,13.57
2022-11-21T23:26:33.706Z,12.30
2022-11-21T23:29:08.323Z,13.37
2022-11-21T23:31:37.238Z,13.33
2022-11-21T23:34:05.518Z,13.57
2022-11-21T23:36:33.800Z,13.87
2022-11-21T23:39:02.129Z,12.93
2022-11-21T23:41:30.878Z,13.60
2022-11-21T23:44:00.240Z,14.00
2022-11-21T23:46:30.421Z,12.90
2022-11-21T23:48:58.833Z,13.93
2022-11-21T23:51:27.101Z,13.63
2022-11-21T23:53:55.339Z,12.73
2022-11-21T23:56:23.666Z,13.30
2022-11-21T23:58:51.991Z,13.43
